createdAt,value
2022-08-05T00:03:34.104Z,3.63
2022-08-05T00:06:05.196Z,3.97
2022-08-05T00:08:48.383Z,3.70
2022-08-05T00:11:23.855Z,4.03
2022-08-05T00:13:58.093Z,3.75
2022-08-05T00:16:35.557Z,4.03
2022-08-05T00:19:05.016Z,3.70
2022-08-05T00:21:35.922Z,3.53
2022-08-05T00:24:09.917Z,3.40
2022-08-05T00:26:38.875Z,4.00
2022-08-05T00:29:13.684Z,3.90
2022-08-05T00:31:54.065Z,3.88
2022-08-05T00:37:14.643Z,3.75
2022-08-05T00:39:58.340Z,3.97
2022-08-05T00:42:34.039Z,3.83
2022-08-05T00:45:01.428Z,3.53
2022-08-05T00:47:31.785Z,4.35
2022-08-05T00:50:15.719Z,4.25
2022-08-05T00:52:45.554Z,3.55
2022-08-05T00:55:14.001Z,3.75
2022-08-05T00:57:57.933Z,3.42
2022-08-05T01:00:28.491Z,4.00
2022-08-05T01:02:57.325Z,4.00
2022-08-05T01:05:27.501Z,3.75
2022-08-05T01:08:40.762Z,3.50
2022-08-05T01:10:52.894Z,3.25
2022-08-05T01:13:59.119Z,3.88
2022-08-05T01:16:52.844Z,3.72
2022-08-05T01:19:46.129Z,3.67
2022-08-05T01:22:31.814Z,3.90
2022-08-05T01:25:39.656Z,4.07
2022-08-05T01:28:17.694Z,4.00
2022-08-05T01:30:56.443Z,4.78
2022-08-05T01:33:35.183Z,4.20
2022-08-05T01:36:13.008Z,3.95
2022-08-05T01:38:44.903Z,4.22
2022-08-05T01:41:15.296Z,4.68
2022-08-05T01:43:46.990Z,4.47
2022-08-05T01:46:41.570Z,3.92
2022-08-05T01:49:23.054Z,3.50
2022-08-05T01:52:01.660Z,3.95
2022-08-05T01:54:52.990Z,3.95
2022-08-05T02:00:13.731Z,4.20
2022-08-05T02:02:53.661Z,3.80
2022-08-05T02:05:28.873Z,3.83
2022-08-05T02:08:00.974Z,3.90
2022-08-05T02:10:36.994Z,3.88
2022-08-05T02:13:16.259Z,3.47
2022-08-05T02:16:01.672Z,3.65
2022-08-05T02:18:48.468Z,3.35
2022-08-05T02:21:22.855Z,3.72
2022-08-05T02:23:57.009Z,3.92
2022-08-05T02:26:28.188Z,3.90
2022-08-05T02:28:58.168Z,4.43
2022-08-05T02:31:34.888Z,3.95
2022-08-05T02:34:12.144Z,3.88
2022-08-05T02:36:45.860Z,4.07
2022-08-05T02:39:17.527Z,3.95
2022-08-05T02:42:00.532Z,4.00
2022-08-05T02:44:31.996Z,4.10
2022-08-05T02:47:01.193Z,4.07
2022-08-05T02:49:48.542Z,3.75
2022-08-05T02:52:29.887Z,3.80
2022-08-05T02:55:01.725Z,4.22
2022-08-05T02:58:11.187Z,3.85
2022-08-05T03:00:19.922Z,4.20
2022-08-05T03:02:48.952Z,4.22
2022-08-05T03:05:16.413Z,4.22
2022-08-05T03:08:06.868Z,3.80
2022-08-05T03:10:31.743Z,3.92
2022-08-05T03:15:27.500Z,4.78
2022-08-05T03:17:57.654Z,4.25
2022-08-05T03:20:25.179Z,4.18
2022-08-05T03:22:57.055Z,4.57
2022-08-05T03:25:33.207Z,4.20
2022-08-05T03:28:14.127Z,4.72
2022-08-05T03:30:53.963Z,4.32
2022-08-05T03:33:22.785Z,4.60
2022-08-05T03:35:59.892Z,4.25
2022-08-05T03:38:33.167Z,4.38
2022-08-05T03:41:08.469Z,3.88
2022-08-05T03:44:08.401Z,4.32
2022-08-05T03:46:26.681Z,4.45
2022-08-05T03:48:57.099Z,3.97
2022-08-05T03:52:38.455Z,4.22
2022-08-05T03:56:06.286Z,3.83
2022-08-05T03:57:46.233Z,4.45
2022-08-05T04:00:16.458Z,4.03
2022-08-05T04:02:57.832Z,4.47
2022-08-05T04:05:34.012Z,4.20
2022-08-05T04:08:14.510Z,4.00
2022-08-05T04:11:02.045Z,4.45
2022-08-05T04:13:50.890Z,4.95
2022-08-05T04:16:24.070Z,5.15
2022-08-05T04:18:54.174Z,5.40
2022-08-05T04:22:08.235Z,4.97
2022-08-05T04:26:46.338Z,4.97
2022-08-05T04:29:14.381Z,4.97
2022-08-05T04:31:41.523Z,4.70
2022-08-05T04:34:31.870Z,4.10
2022-08-05T04:39:23.775Z,5.60
2022-08-05T04:41:51.388Z,5.07
2022-08-05T04:44:21.265Z,4.50
2022-08-05T04:46:56.862Z,4.57
2022-08-05T04:49:38.377Z,4.78
2022-08-05T04:52:07.752Z,4.70
2022-08-05T04:54:34.810Z,4.53
2022-08-05T04:57:01.731Z,5.15
2022-08-05T04:59:38.450Z,4.88
2022-08-05T05:02:36.766Z,4.70
2022-08-05T05:05:03.044Z,4.85
2022-08-05T05:07:32.243Z,4.50
2022-08-05T05:10:02.028Z,5.00
2022-08-05T05:12:30.111Z,4.82
2022-08-05T05:14:56.992Z,4.13
2022-08-05T05:17:56.230Z,4.95
2022-08-05T05:20:12.862Z,4.57
2022-08-05T05:22:40.721Z,4.43
2022-08-05T05:25:16.966Z,3.92
2022-08-05T05:27:53.452Z,4.00
2022-08-05T05:30:31.496Z,4.85
2022-08-05T05:33:03.802Z,4.55
2022-08-05T05:35:45.525Z,4.60
2022-08-05T05:38:14.104Z,4.25
2022-08-05T05:40:49.588Z,4.20
2022-08-05T05:43:22.255Z,4.40
2022-08-05T05:46:10.626Z,4.32
2022-08-05T05:48:42.017Z,3.75
2022-08-05T05:51:15.570Z,4.30
2022-08-05T05:53:46.104Z,5.10
2022-08-05T05:56:31.588Z,5.07
2022-08-05T05:59:06.827Z,5.28
2022-08-05T06:01:38.456Z,4.50
2022-08-05T06:04:11.862Z,4.30
2022-08-05T06:06:47.485Z,4.00
2022-08-05T06:09:25.420Z,4.60
2022-08-05T06:12:03.757Z,5.00
2022-08-05T06:14:31.471Z,4.82
2022-08-05T06:16:59.326Z,7.05
2022-08-05T06:19:34.478Z,3.90
2022-08-05T06:22:07.593Z,3.92
2022-08-05T06:24:36.873Z,3.95
2022-08-05T06:27:04.722Z,4.15
2022-08-05T06:29:49.427Z,3.97
2022-08-05T06:32:25.879Z,4.10
2022-08-05T06:34:56.185Z,4.13
2022-08-05T06:37:58.382Z,3.58
2022-08-05T06:40:18.111Z,3.42
2022-08-05T06:42:52.029Z,3.10
2022-08-05T06:45:45.055Z,3.08
2022-08-05T06:48:36.386Z,3.30
2022-08-05T06:50:57.457Z,2.88
2022-08-05T06:53:28.600Z,3.25
2022-08-05T06:56:00.438Z,3.38
2022-08-05T06:58:35.266Z,3.80
2022-08-05T07:01:06.305Z,4.03
2022-08-05T07:03:34.755Z,3.13
2022-08-05T07:06:06.234Z,3.35
2022-08-05T07:08:47.958Z,3.22
2022-08-05T07:11:22.503Z,3.50
2022-08-05T07:14:20.116Z,3.08
2022-08-05T07:18:02.125Z,3.65
2022-08-05T07:22:35.312Z,4.50
2022-08-05T07:25:22.634Z,4.78
2022-08-05T07:27:58.558Z,3.25
2022-08-05T07:30:38.285Z,4.45
2022-08-05T07:33:16.509Z,5.75
2022-08-05T07:36:04.783Z,4.00
2022-08-05T07:38:34.790Z,3.97
2022-08-05T07:42:07.355Z,3.33
2022-08-05T07:44:00.320Z,3.67
2022-08-05T07:46:30.674Z,3.50
2022-08-05T07:49:04.380Z,3.50
2022-08-05T07:51:40.601Z,3.83
2022-08-05T07:54:18.605Z,3.00
2022-08-05T07:57:13.886Z,3.00
2022-08-05T07:59:40.563Z,3.47
2022-08-05T08:02:15.789Z,2.97
2022-08-05T08:07:13.537Z,2.83
2022-08-05T08:09:40.999Z,3.03
2022-08-05T08:12:35.486Z,2.90
2022-08-05T08:14:55.213Z,3.10
2022-08-05T08:17:22.787Z,2.90
2022-08-05T08:20:44.198Z,4.65
2022-08-05T08:22:37.931Z,3.45
2022-08-05T08:25:16.120Z,2.70
2022-08-05T08:27:47.412Z,2.50
2022-08-05T08:30:30.212Z,2.47
2022-08-05T08:35:35.075Z,2.70
2022-08-05T08:38:11.745Z,2.70
2022-08-05T08:40:50.457Z,3.00
2022-08-05T08:45:16.364Z,3.10
2022-08-05T08:46:10.081Z,3.17
2022-08-05T08:49:06.267Z,2.28
2022-08-05T08:52:04.274Z,2.70
2022-08-05T08:54:27.429Z,2.22
2022-08-05T08:56:56.393Z,2.53
2022-08-05T08:59:27.742Z,2.97
2022-08-05T09:02:02.325Z,2.92
2022-08-05T09:04:30.681Z,3.20
2022-08-05T09:06:58.511Z,2.55
2022-08-05T09:09:34.736Z,2.22
2022-08-05T09:12:19.849Z,2.22
2022-08-05T09:14:58.822Z,4.13
2022-08-05T09:17:42.733Z,2.20
2022-08-05T09:20:36.655Z,3.20
2022-08-05T09:23:09.211Z,2.50
2022-08-05T09:26:01.239Z,2.03
2022-08-05T09:28:31.458Z,2.40
2022-08-05T09:31:43.881Z,1.98
2022-08-05T09:33:59.937Z,2.22
2022-08-05T09:36:55.602Z,2.50
2022-08-05T09:39:39.275Z,2.05
2022-08-05T09:42:22.986Z,2.67
2022-08-05T09:44:56.453Z,2.30
2022-08-05T09:47:34.948Z,1.60
2022-08-05T09:50:18.065Z,1.70
2022-08-05T09:53:01.226Z,1.65
2022-08-05T09:55:57.214Z,2.30
2022-08-05T09:58:15.972Z,2.40
2022-08-05T10:01:13.546Z,3.65
2022-08-05T10:04:10.565Z,2.75
2022-08-05T10:06:40.766Z,2.10
2022-08-05T10:09:27.650Z,1.88
2022-08-05T10:12:29.967Z,2.20
2022-08-05T10:15:17.068Z,2.20
2022-08-05T10:18:02.610Z,2.70
2022-08-05T10:20:32.372Z,2.10
2022-08-05T10:23:01.506Z,3.13
2022-08-05T10:25:28.913Z,2.58
2022-08-05T10:28:13.527Z,2.10
2022-08-05T10:32:54.429Z,2.50
2022-08-05T10:33:35.283Z,2.40
2022-08-05T10:36:05.923Z,1.70
2022-08-05T10:38:37.035Z,1.98
2022-08-05T10:41:46.688Z,1.80
2022-08-05T10:44:18.498Z,1.95
2022-08-05T10:46:58.201Z,1.90
2022-08-05T10:49:33.248Z,1.83
2022-08-05T10:52:05.138Z,1.90
2022-08-05T10:55:15.958Z,2.03
2022-08-05T10:57:46.578Z,2.10
2022-08-05T11:00:24.455Z,2.25
2022-08-05T11:03:24.317Z,2.67
2022-08-05T11:06:14.968Z,1.90
2022-08-05T11:09:16.714Z,1.77
2022-08-05T11:11:52.911Z,2.33
2022-08-05T11:14:57.350Z,1.88
2022-08-05T11:17:57.101Z,2.00
2022-08-05T11:20:43.820Z,1.80
2022-08-05T11:23:26.274Z,1.70
2022-08-05T11:26:32.123Z,2.17
2022-08-05T11:29:11.573Z,2.50
2022-08-05T11:31:58.705Z,2.10
2022-08-05T11:34:38.071Z,2.10
2022-08-05T11:38:14.334Z,2.40
2022-08-05T11:39:55.259Z,1.80
2022-08-05T11:42:28.633Z,2.22
2022-08-05T11:46:15.974Z,1.90
2022-08-05T11:48:14.746Z,1.90
2022-08-05T11:50:44.772Z,1.80
2022-08-05T11:53:13.169Z,2.22
2022-08-05T11:55:57.565Z,2.10
2022-08-05T11:58:41.550Z,2.42
2022-08-05T12:01:22.861Z,2.00
2022-08-05T12:03:56.633Z,2.42
2022-08-05T12:06:26.358Z,3.03
2022-08-05T12:08:55.554Z,1.90
2022-08-05T12:11:28.127Z,1.90
2022-08-05T12:14:11.267Z,2.63
2022-08-05T12:16:40.996Z,2.05
2022-08-05T12:20:25.281Z,1.73
2022-08-05T12:22:09.509Z,1.92
2022-08-05T12:24:43.641Z,1.83
2022-08-05T12:27:25.309Z,1.77
2022-08-05T12:30:07.992Z,1.98
2022-08-05T12:32:43.653Z,2.00
2022-08-05T12:35:21.917Z,1.90
2022-08-05T12:37:49.691Z,2.10
2022-08-05T12:40:26.859Z,1.83
2022-08-05T12:42:56.332Z,2.63
2022-08-05T12:45:23.493Z,2.00
2022-08-05T12:48:27.716Z,1.73
2022-08-05T12:52:10.606Z,2.10
2022-08-05T12:54:16.538Z,1.85
2022-08-05T12:56:48.552Z,1.92
2022-08-05T12:59:27.546Z,2.08
2022-08-05T13:02:12.464Z,2.00
2022-08-05T13:04:54.471Z,2.00
2022-08-05T13:07:55.889Z,2.30
2022-08-05T13:10:12.443Z,2.22
2022-08-05T13:12:57.193Z,2.38
2022-08-05T13:15:35.966Z,1.90
2022-08-05T13:18:08.913Z,2.38
2022-08-05T13:20:40.515Z,2.30
2022-08-05T13:23:07.816Z,1.85
2022-08-05T13:25:52.791Z,2.60
2022-08-05T13:28:22.603Z,2.10
2022-08-05T13:30:51.170Z,1.60
2022-08-05T13:34:23.040Z,3.10
2022-08-05T13:36:07.063Z,1.70
2022-08-05T13:38:38.389Z,2.00
2022-08-05T13:41:13.827Z,1.80
2022-08-05T13:43:54.693Z,1.90
2022-08-05T13:46:43.863Z,1.88
2022-08-05T13:49:11.776Z,1.70
2022-08-05T13:51:46.481Z,2.10
2022-08-05T13:54:15.948Z,1.98
2022-08-05T13:56:51.556Z,2.10
2022-08-05T13:59:24.483Z,1.83
2022-08-05T14:01:58.811Z,2.90
2022-08-05T14:05:00.545Z,2.10
2022-08-05T14:07:59.498Z,2.00
2022-08-05T14:10:32.904Z,2.13
2022-08-05T14:13:00.009Z,1.80
2022-08-05T14:16:05.754Z,2.25
2022-08-05T14:18:23.393Z,2.40
2022-08-05T14:20:54.389Z,2.22
2022-08-05T14:23:25.680Z,1.77
2022-08-05T14:25:59.591Z,2.20
2022-08-05T14:28:30.413Z,1.95
2022-08-05T14:30:59.036Z,2.10
2022-08-05T14:33:26.394Z,2.20
2022-08-05T14:35:54.212Z,2.42
2022-08-05T14:38:33.333Z,2.50
2022-08-05T14:41:07.688Z,2.10
2022-08-05T14:44:00.122Z,2.80
2022-08-05T14:46:28.395Z,2.20
2022-08-05T14:48:57.103Z,1.95
2022-08-05T14:51:24.161Z,2.30
2022-08-05T14:54:26.391Z,2.30
2022-08-05T14:56:44.327Z,2.05
2022-08-05T14:59:14.584Z,2.07
2022-08-05T15:01:48.683Z,2.17
2022-08-05T15:04:22.185Z,1.80
2022-08-05T15:06:52.861Z,1.88
2022-08-05T15:09:51.374Z,2.03
2022-08-05T15:12:16.450Z,2.60
2022-08-05T15:14:49.976Z,2.42
2022-08-05T15:17:46.191Z,2.30
2022-08-05T15:20:17.216Z,2.00
2022-08-05T15:22:54.215Z,2.45
2022-08-05T15:25:51.133Z,3.00
2022-08-05T15:28:16.063Z,2.40
2022-08-05T15:30:47.667Z,2.25
2022-08-05T15:34:04.060Z,2.05
2022-08-05T15:36:17.605Z,2.90
2022-08-05T15:41:01.464Z,2.33
2022-08-05T15:41:58.206Z,2.53
2022-08-05T15:44:28.333Z,2.70
2022-08-05T15:46:58.052Z,2.20
2022-08-05T15:49:48.216Z,2.50
2022-08-05T15:52:16.429Z,2.20
2022-08-05T15:54:44.074Z,1.95
2022-08-05T15:57:12.908Z,2.13
2022-08-05T15:59:40.517Z,2.53
2022-08-05T16:02:09.543Z,1.90
2022-08-05T16:04:42.744Z,2.33
2022-08-05T16:07:11.005Z,2.63
2022-08-05T16:09:38.123Z,2.45
2022-08-05T16:12:09.884Z,2.65
2022-08-05T16:14:38.560Z,2.35
2022-08-05T16:17:06.070Z,2.08
2022-08-05T16:20:05.747Z,2.95
2022-08-05T16:22:27.345Z,2.30
2022-08-05T16:24:55.153Z,6.30
2022-08-05T16:27:47.342Z,3.10
2022-08-05T16:30:25.523Z,2.50
2022-08-05T16:32:54.094Z,2.47
2022-08-05T16:35:27.614Z,2.03
2022-08-05T16:38:03.173Z,2.00
2022-08-05T16:40:48.093Z,2.53
2022-08-05T16:43:19.846Z,2.13
2022-08-05T16:46:04.851Z,3.10
2022-08-05T16:48:35.234Z,2.50
2022-08-05T16:51:03.820Z,2.55
2022-08-05T16:54:02.428Z,2.40
2022-08-05T16:56:23.440Z,2.40
2022-08-05T16:58:50.634Z,4.13
2022-08-05T17:01:18.755Z,3.80
2022-08-05T17:03:46.246Z,6.68
2022-08-05T17:06:16.427Z,5.50
2022-08-05T17:08:52.913Z,4.50
2022-08-05T17:11:23.387Z,4.32
2022-08-05T17:13:51.123Z,4.55
2022-08-05T17:16:32.548Z,6.28
2022-08-05T17:19:02.858Z,6.82
2022-08-05T17:21:35.579Z,7.20
2022-08-05T17:24:18.362Z,9.65
2022-08-05T17:26:52.894Z,6.72
2022-08-05T17:29:22.300Z,6.15
2022-08-05T17:31:58.555Z,8.35
2022-08-05T17:37:00.584Z,11.98
2022-08-05T17:39:33.920Z,13.82
2022-08-05T17:42:19.889Z,10.90
2022-08-05T17:44:50.321Z,8.38
2022-08-05T17:47:22.130Z,10.73
2022-08-05T17:50:03.586Z,6.78
2022-08-05T17:52:53.242Z,5.57
2022-08-05T17:55:27.264Z,4.97
2022-08-05T17:58:02.626Z,4.50
2022-08-05T18:00:30.321Z,3.50
2022-08-05T18:02:58.036Z,3.10
2022-08-05T18:05:35.679Z,3.15
2022-08-05T18:08:04.093Z,3.80
2022-08-05T18:10:32.188Z,3.97
2022-08-05T18:13:02.008Z,4.18
2022-08-05T18:15:35.247Z,3.88
2022-08-05T18:18:11.150Z,3.60
2022-08-05T18:20:39.118Z,4.53
2022-08-05T18:23:09.045Z,3.75
2022-08-05T18:25:45.060Z,4.15
2022-08-05T18:28:17.685Z,4.07
2022-08-05T18:30:50.861Z,4.20
2022-08-05T18:33:22.529Z,3.90
2022-08-05T18:36:03.571Z,3.90
2022-08-05T18:38:34.686Z,3.90
2022-08-05T18:41:55.147Z,3.55
2022-08-05T18:43:50.192Z,3.40
2022-08-05T18:46:19.741Z,4.20
2022-08-05T18:48:52.080Z,4.75
2022-08-05T18:52:06.257Z,6.30
2022-08-05T18:54:31.192Z,6.97
2022-08-05T18:57:02.314Z,5.00
2022-08-05T18:59:44.227Z,3.80
2022-08-05T19:02:27.917Z,3.92
2022-08-05T19:05:03.235Z,4.25
2022-08-05T19:07:48.060Z,4.45
2022-08-05T19:10:17.183Z,4.57
2022-08-05T19:12:46.044Z,4.90
2022-08-05T19:15:57.582Z,4.25
2022-08-05T19:18:09.327Z,4.10
2022-08-05T19:20:41.666Z,3.80
2022-08-05T19:24:03.861Z,4.32
2022-08-05T19:26:01.050Z,3.47
2022-08-05T19:28:29.117Z,3.55
2022-08-05T19:30:56.300Z,3.47
2022-08-05T19:33:35.186Z,3.03
2022-08-05T19:36:06.470Z,3.60
2022-08-05T19:38:35.876Z,3.53
2022-08-05T19:41:07.102Z,3.15
2022-08-05T19:44:06.192Z,3.78
2022-08-05T19:46:29.460Z,4.30
2022-08-05T19:49:03.439Z,6.43
2022-08-05T19:52:05.702Z,5.72
2022-08-05T19:54:29.518Z,4.93
2022-08-05T19:57:08.554Z,4.28
2022-08-05T19:59:59.428Z,4.05
2022-08-05T20:02:26.203Z,5.20
2022-08-05T20:04:55.555Z,4.97
2022-08-05T20:07:48.260Z,5.45
2022-08-05T20:10:14.751Z,4.68
2022-08-05T20:12:48.248Z,5.28
2022-08-05T20:15:23.179Z,4.30
2022-08-05T20:18:10.769Z,4.20
2022-08-05T20:20:56.708Z,4.25
2022-08-05T20:24:24.108Z,4.28
2022-08-05T20:26:51.473Z,4.03
2022-08-05T20:29:26.653Z,4.22
2022-08-05T20:31:58.254Z,4.07
2022-08-05T20:34:26.695Z,4.65
2022-08-05T20:36:53.717Z,4.43
2022-08-05T20:39:22.592Z,4.40
2022-08-05T20:41:49.677Z,4.30
2022-08-05T20:44:29.389Z,4.00
2022-08-05T20:46:59.661Z,3.92
2022-08-05T20:49:26.809Z,4.50
2022-08-05T20:51:54.895Z,5.50
2022-08-05T20:54:43.648Z,8.20
2022-08-05T20:57:14.609Z,6.45
2022-08-05T21:00:21.390Z,5.57
2022-08-05T21:05:18.668Z,6.22
2022-08-05T21:07:52.876Z,6.35
2022-08-05T21:10:21.625Z,4.82
2022-08-05T21:12:55.566Z,4.93
2022-08-05T21:15:33.911Z,4.38
2022-08-05T21:18:02.505Z,4.80
2022-08-05T21:20:33.567Z,3.97
2022-08-05T21:23:01.297Z,4.15
2022-08-05T21:25:33.822Z,3.97
2022-08-05T21:28:03.614Z,4.18
2022-08-05T21:30:31.599Z,4.43
2022-08-05T21:32:58.914Z,3.70
2022-08-05T21:35:29.960Z,3.53
2022-08-05T21:38:10.664Z,3.95
2022-08-05T21:43:24.059Z,3.78
2022-08-05T21:45:56.344Z,4.05
2022-08-05T21:48:26.593Z,5.35
2022-08-05T21:50:56.087Z,3.90
2022-08-05T21:53:27.474Z,3.95
2022-08-05T21:56:06.115Z,3.58
2022-08-05T21:58:48.219Z,4.15
2022-08-05T22:01:28.450Z,4.50
2022-08-05T22:04:04.974Z,4.72
2022-08-05T22:06:34.765Z,4.60
2022-08-05T22:09:20.783Z,4.90
2022-08-05T22:11:48.819Z,14.40
2022-08-05T22:14:34.553Z,4.55
2022-08-05T22:17:07.054Z,4.45
2022-08-05T22:20:01.418Z,4.68
2022-08-05T22:22:26.841Z,4.07
2022-08-05T22:25:18.080Z,4.30
2022-08-05T22:28:08.640Z,6.63
2022-08-05T22:30:53.545Z,5.20
2022-08-05T22:33:57.169Z,5.50
2022-08-05T22:36:14.569Z,4.85
2022-08-05T22:38:47.921Z,4.88
2022-08-05T22:42:04.807Z,4.75
2022-08-05T22:44:04.315Z,4.53
2022-08-05T22:46:31.537Z,4.13
2022-08-05T22:48:59.610Z,4.43
2022-08-05T22:52:06.527Z,6.15
2022-08-05T22:54:14.628Z,8.38
2022-08-05T22:56:41.719Z,8.55
2022-08-05T22:59:45.781Z,4.78
2022-08-05T23:04:35.684Z,4.50
2022-08-05T23:07:03.042Z,5.13
2022-08-05T23:09:53.346Z,3.90
2022-08-05T23:12:18.165Z,4.35
2022-08-05T23:14:45.243Z,3.92
2022-08-05T23:17:35.019Z,3.90
2022-08-05T23:20:17.717Z,4.05
2022-08-05T23:22:48.398Z,3.67
2022-08-05T23:25:52.436Z,3.75
2022-08-05T23:28:06.981Z,3.92
2022-08-05T23:30:40.258Z,4.00
2022-08-05T23:33:16.418Z,4.07
2022-08-05T23:35:56.244Z,3.72
2022-08-05T23:38:24.482Z,4.13
2022-08-05T23:40:52.697Z,4.50
2022-08-05T23:43:25.229Z,5.10
2022-08-05T23:46:21.408Z,4.70
2022-08-05T23:49:00.678Z,4.15
2022-08-05T23:51:53.437Z,4.45
2022-08-05T23:54:25.112Z,4.28
2022-08-05T23:57:03.127Z,4.47
